Time;durP1;ratioP1;P1;durP2;ratioP2;P2;SDS_P1;SDS_P2;PMS_P1;PMS_P2;Temp;Humidity;BMP_temperature;BMP_pressure;BME280_temperature;BME280_humidity;BME280_pressure;Samples;Min_cycle;Max_cycle;Signal;HPM_P1;HPM_P2
2022/03/29 17:17:12;;;;;;;19.37;4.77;;;;;;;18.96;86.38;100519.47;5135900;27;20570;-86
2022/03/29 17:20:08;;;;;;;26.80;4.30;;;;;;;18.90;84.79;100509.41;5110586;27;21078;-87
2022/03/29 17:22:37;;;;;;;29.63;5.17;;;;;;;18.95;85.15;100526.09;5109692;28;20486;-87
2022/03/29 17:25:09;;;;;;;17.97;4.73;;;;;;;18.84;84.54;100513.22;5107728;28;20436;-88
2022/03/29 17:27:37;;;;;;;28.63;5.70;;;;;;;18.69;85.50;100521.25;5105614;28;20778;-87
2022/03/29 17:30:06;;;;;;;24.47;5.07;;;;;;;18.58;87.51;100509.16;5092757;28;20874;-86
2022/03/29 17:32:35;;;;;;;25.00;5.57;;;;;;;18.61;87.61;100515.06;5092046;28;20850;-88
2022/03/29 17:35:07;;;;;;;18.70;5.70;;;;;;;18.56;87.37;100514.13;5109966;28;20447;-87
2022/03/29 17:37:37;;;;;;;27.20;6.23;;;;;;;18.45;88.37;100504.81;5107764;28;20473;-87
2022/03/29 17:40:09;;;;;;;25.93;5.23;;;;;;;18.45;88.42;100504.81;5108994;28;20478;-88
2022/03/29 17:42:37;;;;;;;30.60;5.67;;;;;;;18.42;88.16;100508.09;5110047;28;20443;-87
2022/03/29 17:45:06;;;;;;;20.53;5.37;;;;;;;18.41;89.01;100508.34;5093030;28;20433;-87
2022/03/29 17:47:34;;;;;;;25.30;6.50;;;;;;;18.30;90.40;100510.06;5076040;28;20831;-88
2022/03/29 17:50:03;;;;;;;30.37;6.17;;;;;;;18.07;90.94;100513.00;5092538;28;20459;-88
2022/03/29 17:52:32;;;;;;;39.70;8.70;;;;;;;17.95;92.04;100526.88;5092510;28;20447;-88
2022/03/29 17:54:59;;;;;;;28.40;7.30;;;;;;;17.78;92.78;100524.06;5075472;28;20506;-88
2022/03/29 17:57:29;;;;;;;28.67;6.30;;;;;;;17.69;93.33;100520.03;5108779;28;20517;-88
2022/03/29 17:59:58;;;;;;;36.53;8.73;;;;;;;17.39;94.78;100528.50;5108917;28;20476;-88
2022/03/29 18:02:28;;;;;;;35.47;10.50;;;;;;;17.29;96.44;100538.50;5109206;28;20435;-88
2022/03/29 18:04:57;;;;;;;33.07;8.77;;;;;;;17.16;96.86;100545.09;5091014;28;20519;-86
2022/03/29 18:07:26;;;;;;;19.60;7.97;;;;;;;17.02;97.88;100539.00;5103998;28;20463;-87
2022/03/29 18:09:56;;;;;;;23.80;6.60;;;;;;;16.90;98.51;100518.84;5084327;28;20471;-87
2022/03/29 18:12:24;;;;;;;29.00;6.83;;;;;;;16.89;99.05;100526.28;5039367;28;20442;-87
2022/03/29 18:14:55;;;;;;;34.03;9.00;;;;;;;16.83;99.22;100524.47;5033009;28;21018;-86
2022/03/29 18:17:23;;;;;;;46.43;15.03;;;;;;;16.85;99.28;100527.00;5050372;28;20456;-88
2022/03/29 18:19:51;;;;;;;38.10;12.57;;;;;;;16.80;99.82;100540.69;5033443;28;20485;-88
2022/03/29 18:22:19;;;;;;;31.10;9.47;;;;;;;16.69;99.84;100522.22;5034056;28;20991;-87
2022/03/29 18:24:46;;;;;;;42.63;10.80;;;;;;;16.72;100.00;100530.00;5016137;28;20549;-87
2022/03/29 18:27:16;;;;;;;29.13;9.07;;;;;;;16.68;100.00;100528.81;5066318;28;20437;-87
2022/03/29 18:29:44;;;;;;;39.23;11.90;;;;;;;16.65;100.00;100532.03;5046484;28;20541;-87
2022/03/29 18:32:14;;;;;;;33.20;9.10;;;;;;;16.48;100.00;100529.94;5004751;28;20587;-88
2022/03/29 18:34:48;;;;;;;34.53;10.37;;;;;;;16.44;100.00;100534.25;5024903;28;20439;-87
2022/03/29 18:37:36;;;;;;;36.77;9.60;;;;;;;16.38;100.00;100543.47;5069448;28;20417;-88
2022/03/29 18:40:06;;;;;;;37.33;10.17;;;;;;;16.39;100.00;100527.75;5072970;28;20534;-87
2022/03/29 18:42:35;;;;;;;33.80;9.50;;;;;;;16.28;100.00;100521.16;5096087;28;20452;-89
2022/03/29 18:45:04;;;;;;;28.17;8.67;;;;;;;16.23;100.00;100530.13;5061058;28;20473;-88
2022/03/29 18:47:36;;;;;;;36.83;8.80;;;;;;;16.22;100.00;100538.66;5060829;28;20452;-87
2022/03/29 18:50:06;;;;;;;30.53;9.50;;;;;;;16.05;100.00;100530.22;5060697;28;20471;-88
2022/03/29 18:52:34;;;;;;;26.60;8.73;;;;;;;16.08;100.00;100540.78;5059966;28;20429;-87
2022/03/29 18:55:07;;;;;;;28.37;8.30;;;;;;;16.06;100.00;100547.59;5061349;28;20429;-86
2022/03/29 18:57:36;;;;;;;31.77;10.13;;;;;;;16.04;100.00;100552.50;5093514;28;20417;-87
2022/03/29 19:00:07;;;;;;;33.77;9.80;;;;;;;15.93;100.00;100545.88;5059924;28;20476;-88
2022/03/29 19:02:36;;;;;;;37.07;10.93;;;;;;;15.92;100.00;100559.91;5076378;28;20470;-87
2022/03/29 19:05:05;;;;;;;33.13;10.07;;;;;;;15.94;100.00;100563.25;5076098;28;20835;-87
2022/03/29 19:07:33;;;;;;;51.87;10.13;;;;;;;15.95;100.00;100554.75;5092725;28;20494;-87
2022/03/29 19:10:03;;;;;;;42.30;11.83;;;;;;;15.89;100.00;100555.69;5092798;28;20988;-87
2022/03/29 19:12:31;;;;;;;41.77;10.30;;;;;;;15.91;100.00;100572.00;5091827;28;20428;-87
2022/03/29 19:14:59;;;;;;;48.07;14.17;;;;;;;15.82;100.00;100572.31;5072405;28;20447;-87
2022/03/29 19:17:28;;;;;;;35.40;8.90;;;;;;;15.84;100.00;100583.94;5092251;28;20539;-88
2022/03/29 19:19:59;;;;;;;37.37;10.57;;;;;;;15.77;100.00;100579.59;5091310;28;20538;-87
2022/03/29 19:22:27;;;;;;;39.07;7.90;;;;;;;15.72;100.00;100582.22;5075951;28;20437;-88
2022/03/29 19:24:55;;;;;;;33.83;9.10;;;;;;;15.64;100.00;100577.00;5075766;28;20437;-87
2022/03/29 19:27:25;;;;;;;55.70;9.70;;;;;;;15.70;100.00;100600.88;5075830;28;20433;-87
2022/03/29 19:29:56;;;;;;;48.30;9.33;;;;;;;15.73;100.00;100603.19;5059081;28;20435;-87
2022/03/29 19:32:24;;;;;;;50.37;9.40;;;;;;;15.71;100.00;100603.41;5093235;28;20491;-87
2022/03/29 19:34:53;;;;;;;54.63;9.90;;;;;;;15.73;100.00;100606.78;5075460;28;20429;-86
2022/03/29 19:37:21;;;;;;;46.30;9.93;;;;;;;15.74;100.00;100626.91;5076400;28;20841;-87
2022/03/29 19:39:50;;;;;;;43.00;9.37;;;;;;;15.63;100.00;100617.47;5058685;28;20476;-87
2022/03/29 19:42:27;;;;;;;44.53;9.87;;;;;;;15.63;100.00;100628.50;5057707;28;20982;-87
2022/03/29 19:45:09;;;;;;;40.13;8.30;;;;;;;15.54;100.00;100625.19;5092152;28;20440;-87
2022/03/29 19:47:39;;;;;;;43.67;9.67;;;;;;;15.58;100.00;100639.41;5059228;28;20468;-87
2022/03/29 19:50:16;;;;;;;63.10;9.60;;;;;;;15.49;100.00;100614.03;5091974;28;20516;-87
2022/03/29 19:52:52;;;;;;;51.10;10.17;;;;;;;15.57;100.00;100623.94;5046814;28;20498;-87
2022/03/29 19:55:21;;;;;;;65.17;10.90;;;;;;;15.64;100.00;100635.69;5092036;28;20891;-87
2022/03/29 19:57:48;;;;;;;60.73;11.27;;;;;;;15.58;100.00;100641.31;5091083;28;20464;-87
2022/03/29 20:00:17;;;;;;;54.93;9.20;;;;;;;15.58;100.00;100628.38;5073561;28;21241;-87
2022/03/29 20:02:48;;;;;;;67.87;11.37;;;;;;;15.57;100.00;100645.97;5091983;28;20433;-87
2022/03/29 20:05:17;;;;;;;48.77;8.40;;;;;;;15.55;100.00;100642.56;5101409;28;20428;-88
2022/03/29 20:07:45;;;;;;;51.57;8.73;;;;;;;15.59;100.00;100671.34;5078554;28;20488;-87
2022/03/29 20:10:17;;;;;;;55.33;8.80;;;;;;;15.54;100.00;100671.19;5087601;28;20493;-87
2022/03/29 20:12:45;;;;;;;46.17;9.23;;;;;;;15.52;100.00;100667.81;5073919;28;20974;-88
2022/03/29 20:15:15;;;;;;;59.53;10.27;;;;;;;15.41;100.00;100649.28;5087348;28;20438;-88
2022/03/29 20:17:46;;;;;;;70.57;10.47;;;;;;;15.49;100.00;100668.28;5061651;28;21029;-88
2022/03/29 20:20:14;;;;;;;64.50;9.27;;;;;;;15.47;100.00;100662.13;5071695;28;20485;-87
2022/03/29 20:22:43;;;;;;;52.07;8.73;;;;;;;15.45;100.00;100664.28;5084100;28;20876;-87
2022/03/29 20:25:21;;;;;;;65.93;9.10;;;;;;;15.58;100.00;100683.47;5083821;28;20447;-87
2022/03/29 20:27:50;;;;;;;75.43;10.37;;;;;;;15.56;100.00;100682.00;5056760;28;20448;-87
2022/03/29 20:30:25;;;;;;;53.37;9.23;;;;;;;15.53;100.00;100689.63;5065540;28;20946;-88
2022/03/29 20:32:56;;;;;;;69.53;9.30;;;;;;;15.55;100.00;100697.66;5095519;28;20935;-87
2022/03/29 20:35:26;;;;;;;78.63;10.40;;;;;;;15.41;100.00;100674.06;5084021;28;20800;-88
2022/03/29 20:37:59;;;;;;;49.57;9.40;;;;;;;15.48;100.00;100692.22;5089983;28;20444;-88
2022/03/29 20:40:29;;;;;;;58.17;9.90;;;;;;;15.47;100.00;100703.47;5105429;28;20549;-88
2022/03/29 20:42:59;;;;;;;61.47;9.40;;;;;;;15.44;100.00;100695.63;5091221;28;20884;-87
2022/03/29 20:45:27;;;;;;;46.97;10.57;;;;;;;15.44;100.00;100718.53;5074493;28;20977;-87
2022/03/29 20:47:57;;;;;;;61.03;8.70;;;;;;;15.44;100.00;100693.72;5073736;28;20455;-87
2022/03/29 20:50:25;;;;;;;67.73;8.70;;;;;;;15.43;100.00;100699.47;5091130;28;20486;-87
2022/03/29 20:52:54;;;;;;;52.50;9.40;;;;;;;15.43;100.00;100700.31;5074175;28;20841;-87
2022/03/29 20:55:22;;;;;;;54.93;10.40;;;;;;;15.40;100.00;100694.41;5074799;28;20426;-87
2022/03/29 20:57:49;;;;;;;72.90;10.53;;;;;;;15.46;100.00;100712.78;5057995;28;20528;-87
2022/03/29 21:00:19;;;;;;;53.30;8.97;;;;;;;15.44;100.00;100710.25;5058206;28;20476;-87
2022/03/29 21:02:46;;;;;;;61.50;9.43;;;;;;;15.43;100.00;100704.97;5092047;28;20437;-87
2022/03/29 21:05:15;;;;;;;65.17;8.27;;;;;;;15.33;100.00;100693.66;5074594;28;20425;-87
2022/03/29 21:07:43;;;;;;;81.77;10.50;;;;;;;15.43;100.00;100716.00;5075525;28;20478;-88
2022/03/29 21:10:13;;;;;;;55.43;8.43;;;;;;;15.40;100.00;100719.19;5074563;28;20475;-88
2022/03/29 21:12:41;;;;;;;59.87;8.20;;;;;;;15.35;100.00;100716.28;5074199;28;20468;-87
2022/03/29 21:15:09;;;;;;;53.50;10.17;;;;;;;15.36;100.00;100723.50;5074214;28;20432;-87
2022/03/29 21:17:38;;;;;;;54.20;9.40;;;;;;;15.30;100.00;100705.09;5091946;28;20945;-87
2022/03/29 21:20:09;;;;;;;58.97;9.30;;;;;;;15.26;100.00;100715.72;5074644;28;20469;-88
2022/03/29 21:22:37;;;;;;;61.40;8.20;;;;;;;15.32;100.00;100722.25;5090810;28;20443;-88
2022/03/29 21:25:08;;;;;;;46.27;8.20;;;;;;;15.27;100.00;100720.16;5091088;28;20543;-88
2022/03/29 21:27:36;;;;;;;46.40;8.27;;;;;;;15.25;100.00;100710.44;5090518;28;21010;-88
2022/03/29 21:30:05;;;;;;;68.63;8.93;;;;;;;15.18;100.00;100724.28;5060742;28;20444;-87
2022/03/29 21:32:36;;;;;;;55.77;7.73;;;;;;;15.24;100.00;100717.84;5087135;28;20930;-86
2022/03/29 21:35:06;;;;;;;84.80;8.40;;;;;;;15.17;100.00;100706.91;5092878;28;20799;-87
2022/03/29 21:37:34;;;;;;;53.53;7.50;;;;;;;15.12;100.00;100705.91;5073389;28;20445;-88
2022/03/29 21:40:03;;;;;;;60.53;9.10;;;;;;;15.21;100.00;100719.16;5092439;28;20522;-86
2022/03/29 21:42:32;;;;;;;51.73;8.23;;;;;;;15.18;100.00;100711.38;5074724;28;20826;-86
2022/03/29 21:45:00;;;;;;;45.53;8.53;;;;;;;15.13;100.00;100708.44;5074019;28;20512;-87
2022/03/29 21:47:30;;;;;;;41.10;7.90;;;;;;;15.14;100.00;100715.63;5070228;28;20477;-89
2022/03/29 21:49:57;;;;;;;45.57;6.67;;;;;;;15.02;100.00;100717.41;5091437;28;20515;-88
2022/03/29 21:52:25;;;;;;;60.50;8.17;;;;;;;15.01;100.00;100723.97;5075155;28;20443;-88
2022/03/29 21:54:53;;;;;;;57.40;7.33;;;;;;;15.06;100.00;100726.91;5071343;28;20445;-88
2022/03/29 21:57:20;;;;;;;47.97;6.77;;;;;;;14.94;100.00;100708.59;5038537;28;20444;-87
2022/03/29 21:59:48;;;;;;;78.17;8.30;;;;;;;15.06;100.00;100720.56;5054930;28;20528;-87
2022/03/29 22:02:19;;;;;;;49.40;6.83;;;;;;;14.94;100.00;100728.69;5085074;28;20441;-87
2022/03/29 22:04:46;;;;;;;58.43;9.00;;;;;;;14.91;100.00;100712.63;5075433;28;20440;-87
2022/03/29 22:07:17;;;;;;;42.57;6.13;;;;;;;14.94;100.00;100725.94;5041893;28;20980;-87
2022/03/29 22:09:47;;;;;;;36.43;8.10;;;;;;;14.87;100.00;100719.63;5075373;28;20453;-89
2022/03/29 22:12:15;;;;;;;40.77;7.03;;;;;;;14.91;100.00;100723.63;5075446;28;20446;-88
2022/03/29 22:14:43;;;;;;;46.77;6.77;;;;;;;14.81;100.00;100721.38;5058961;28;20429;-88
2022/03/29 22:17:12;;;;;;;38.50;9.77;;;;;;;14.90;100.00;100730.19;5042521;28;20437;-89
2022/03/29 22:19:40;;;;;;;33.17;6.53;;;;;;;14.85;100.00;100724.50;5078872;28;20496;-88
2022/03/29 22:22:08;;;;;;;50.27;8.00;;;;;;;14.85;100.00;100724.50;5072931;28;20855;-89
2022/03/29 22:24:36;;;;;;;57.63;6.80;;;;;;;14.85;100.00;100732.78;5060727;28;20442;-88
2022/03/29 22:27:07;;;;;;;54.70;7.80;;;;;;;14.83;100.00;100712.88;5076747;28;20437;-88
2022/03/29 22:29:35;;;;;;;44.80;6.30;;;;;;;14.85;100.00;100727.28;5093814;28;20427;-88
2022/03/29 22:32:03;;;;;;;51.77;7.97;;;;;;;14.87;100.00;100722.38;5077759;28;20417;-88
2022/03/29 22:34:31;;;;;;;46.03;8.63;;;;;;;14.85;100.00;100730.03;5060924;28;20437;-89
2022/03/29 22:37:02;;;;;;;55.13;8.47;;;;;;;14.81;100.00;100742.56;5079955;28;20808;-89
2022/03/29 22:39:31;;;;;;;46.53;7.27;;;;;;;14.80;100.00;100732.63;5093873;28;21016;-88
2022/03/29 22:41:58;;;;;;;51.63;7.37;;;;;;;14.77;100.00;100738.56;5076699;28;20942;-89
2022/03/29 22:44:26;;;;;;;41.50;7.50;;;;;;;14.73;100.00;100723.56;5060938;28;20433;-88
2022/03/29 22:46:55;;;;;;;50.17;7.37;;;;;;;14.76;100.00;100725.88;5057948;28;20484;-87
2022/03/29 22:49:23;;;;;;;48.13;7.70;;;;;;;14.77;100.00;100731.16;5076834;28;20425;-88
2022/03/29 22:51:51;;;;;;;52.03;8.17;;;;;;;14.71;100.00;100734.78;5093643;28;20472;-88
2022/03/29 22:54:18;;;;;;;40.03;7.60;;;;;;;14.71;100.00;100729.28;5060192;28;20443;-88
2022/03/29 22:59:34;;;;;;;52.63;6.93;;;;;;;14.61;100.00;100726.19;5079125;28;20469;-88
2022/03/29 23:02:02;;;;;;;48.47;7.07;;;;;;;14.65;100.00;100732.06;5060843;28;20437;-89
2022/03/29 23:04:31;;;;;;;36.03;5.87;;;;;;;14.56;99.99;100714.16;5057588;28;20525;-88
2022/03/29 23:07:00;;;;;;;50.77;6.50;;;;;;;14.55;100.00;100701.44;5057759;28;20446;-88
2022/03/29 23:09:28;;;;;;;51.17;6.00;;;;;;;14.63;100.00;100725.94;5073501;28;20457;-88
2022/03/29 23:11:55;;;;;;;41.17;5.40;;;;;;;14.67;100.00;100722.53;5085060;28;20444;-89
2022/03/29 23:14:23;;;;;;;48.37;7.27;;;;;;;14.59;100.00;100719.22;5057224;28;20905;-88
2022/03/29 23:16:51;;;;;;;52.80;6.93;;;;;;;14.62;99.82;100724.28;5073697;28;20453;-89
2022/03/29 23:19:20;;;;;;;51.80;6.70;;;;;;;14.58;100.00;100717.53;5076472;28;20469;-88
2022/03/29 23:21:48;;;;;;;33.10;5.70;;;;;;;14.61;98.69;100730.84;5087562;28;20441;-89
2022/03/29 23:24:16;;;;;;;32.57;5.20;;;;;;;14.55;98.78;100724.31;5077359;28;20421;-89
2022/03/29 23:26:44;;;;;;;54.23;8.23;;;;;;;14.58;99.15;100712.84;5077233;28;20452;-88
2022/03/29 23:29:12;;;;;;;50.27;6.70;;;;;;;14.58;99.28;100714.78;5060663;28;20501;-88
2022/03/29 23:31:39;;;;;;;35.20;5.73;;;;;;;14.56;98.83;100716.88;5060354;28;20528;-88
2022/03/29 23:34:08;;;;;;;34.10;4.93;;;;;;;14.57;98.94;100721.34;5060725;28;20478;-88
2022/03/29 23:36:37;;;;;;;42.50;5.70;;;;;;;14.50;98.85;100741.44;5060646;28;20528;-88
2022/03/29 23:39:06;;;;;;;41.90;5.93;;;;;;;14.47;98.99;100717.13;5060128;28;20506;-88
2022/03/29 23:41:37;;;;;;;49.87;6.33;;;;;;;14.51;99.32;100729.38;5073239;28;20568;-89
2022/03/29 23:44:06;;;;;;;44.40;6.10;;;;;;;14.48;99.50;100729.81;5057850;28;20461;-88
2022/03/29 23:46:34;;;;;;;41.23;5.87;;;;;;;14.50;99.60;100737.84;5067426;28;20532;-88
2022/03/29 23:49:03;;;;;;;33.00;6.50;;;;;;;14.42;99.11;100727.97;5073244;28;20437;-88
2022/03/29 23:51:32;;;;;;;34.07;5.87;;;;;;;14.37;99.12;100715.91;5076107;28;20445;-89
2022/03/29 23:54:01;;;;;;;55.50;6.80;;;;;;;14.36;99.06;100715.06;5076503;28;20449;-88
2022/03/29 23:56:31;;;;;;;38.00;6.47;;;;;;;14.42;99.35;100730.72;5082972;28;20924;-88
2022/03/29 23:59:01;;;;;;;34.83;7.17;;;;;;;14.43;98.90;100721.38;5073232;28;20445;-88
